createdAt,value
2022-10-04T00:00:12.593Z,2.80
2022-10-04T00:03:08.197Z,2.90
2022-10-04T00:05:41.633Z,5.20
2022-10-04T00:08:31.042Z,4.30
2022-10-04T00:11:16.211Z,2.10
2022-10-04T00:13:52.885Z,2.80
2022-10-04T00:16:31.326Z,2.60
2022-10-04T00:19:28.254Z,3.10
2022-10-04T00:22:17.552Z,1.80
2022-10-04T00:25:21.790Z,2.70
2022-10-04T00:28:20.121Z,3.10
2022-10-04T00:31:13.271Z,2.20
2022-10-04T00:33:45.224Z,3.20
2022-10-04T00:36:52.563Z,1.80
2022-10-04T00:39:44.789Z,3.50
2022-10-04T00:42:38.547Z,3.90
2022-10-04T00:45:18.568Z,3.20
2022-10-04T00:48:30.472Z,6.00
2022-10-04T00:51:10.582Z,3.40
2022-10-04T00:53:50.574Z,5.60
2022-10-04T00:56:31.150Z,4.40
2022-10-04T00:59:23.332Z,5.10
2022-10-04T01:01:57.139Z,3.90
2022-10-04T01:04:35.110Z,6.10
2022-10-04T01:07:08.146Z,3.50
2022-10-04T01:09:47.490Z,3.30
2022-10-04T01:12:29.727Z,2.40
2022-10-04T01:15:07.493Z,4.00
2022-10-04T01:17:38.600Z,4.80
2022-10-04T01:20:30.929Z,3.60
2022-10-04T01:23:01.881Z,5.10
2022-10-04T01:30:50.874Z,3.30
2022-10-04T01:33:22.026Z,3.90
2022-10-04T01:35:53.136Z,4.40
2022-10-04T01:41:00.067Z,3.90
2022-10-04T01:43:37.859Z,2.00
2022-10-04T01:46:14.481Z,3.50
2022-10-04T01:48:48.136Z,1.80
2022-10-04T01:51:23.088Z,4.80
2022-10-04T01:54:00.165Z,2.40
2022-10-04T01:56:38.333Z,3.50
2022-10-04T01:59:15.480Z,3.10
2022-10-04T02:01:51.710Z,1.70
2022-10-04T02:04:28.089Z,4.80
2022-10-04T02:07:01.473Z,4.60
2022-10-04T02:09:36.610Z,3.30
2022-10-04T02:12:07.990Z,1.90
2022-10-04T02:14:45.349Z,3.80
2022-10-04T02:17:17.316Z,3.80
2022-10-04T02:19:49.169Z,4.00
2022-10-04T02:22:21.315Z,4.20
2022-10-04T02:24:54.620Z,5.90
2022-10-04T02:27:30.084Z,6.80
2022-10-04T02:30:07.117Z,2.50
2022-10-04T02:32:57.485Z,2.70
2022-10-04T02:35:30.793Z,1.70
2022-10-04T02:38:10.339Z,4.60
2022-10-04T02:40:48.698Z,3.90
2022-10-04T02:43:24.751Z,2.70
2022-10-04T02:46:02.662Z,3.50
2022-10-04T02:48:40.609Z,3.80
2022-10-04T02:51:20.941Z,1.60
2022-10-04T02:54:03.125Z,2.20
2022-10-04T02:56:36.597Z,4.70
2022-10-04T02:59:08.580Z,2.60
2022-10-04T03:01:52.820Z,4.40
2022-10-04T03:04:26.600Z,2.80
2022-10-04T03:06:59.472Z,4.70
2022-10-04T03:09:30.360Z,2.60
2022-10-04T03:14:32.932Z,5.00
2022-10-04T03:17:06.126Z,3.00
2022-10-04T03:19:38.790Z,4.00
2022-10-04T03:22:13.361Z,3.10
2022-10-04T03:24:49.300Z,2.80
2022-10-04T03:27:24.985Z,1.60
2022-10-04T03:29:59.308Z,4.10
2022-10-04T03:32:32.322Z,4.70
2022-10-04T03:35:08.671Z,3.60
2022-10-04T03:37:41.540Z,4.20
2022-10-04T03:40:15.856Z,2.90
2022-10-04T03:42:49.581Z,5.90
2022-10-04T03:45:22.569Z,4.10
2022-10-04T03:47:58.809Z,4.10
2022-10-04T03:50:34.313Z,4.60
2022-10-04T03:53:10.725Z,3.10
2022-10-04T03:55:45.306Z,5.00
2022-10-04T03:58:18.968Z,4.90
2022-10-04T04:01:04.482Z,3.60
2022-10-04T04:03:47.928Z,3.50
2022-10-04T04:06:21.553Z,4.60
2022-10-04T04:08:56.007Z,4.00
2022-10-04T04:11:28.944Z,3.70
2022-10-04T04:14:06.408Z,3.80
2022-10-04T04:16:39.972Z,4.80
2022-10-04T04:19:19.863Z,5.60
2022-10-04T04:21:51.404Z,3.90
2022-10-04T04:24:28.995Z,4.20
2022-10-04T04:27:05.305Z,5.00
2022-10-04T04:29:45.800Z,6.30
2022-10-04T04:32:23.252Z,6.30
2022-10-04T04:34:58.412Z,10.10
2022-10-04T04:37:30.244Z,3.60
2022-10-04T04:40:20.870Z,4.20
2022-10-04T04:42:52.567Z,4.00
2022-10-04T04:45:29.625Z,5.50
2022-10-04T04:50:34.443Z,3.30
2022-10-04T04:53:10.195Z,3.40
2022-10-04T04:56:02.736Z,4.90
2022-10-04T04:58:37.513Z,6.60
2022-10-04T05:01:17.233Z,6.00
2022-10-04T05:04:00.463Z,3.50
2022-10-04T05:09:02.239Z,5.80
2022-10-04T05:11:35.762Z,5.30
2022-10-04T05:14:10.681Z,6.70
2022-10-04T05:16:44.395Z,8.20
2022-10-04T05:19:21.719Z,8.40
2022-10-04T05:21:55.300Z,6.20
2022-10-04T05:24:29.594Z,9.30
2022-10-04T05:27:03.884Z,6.10
2022-10-04T05:29:39.461Z,5.00
2022-10-04T05:32:25.891Z,6.20
2022-10-04T05:34:57.363Z,3.70
2022-10-04T05:37:44.526Z,2.90
2022-10-04T05:40:32.272Z,3.40
2022-10-04T05:43:03.211Z,7.50
2022-10-04T05:45:34.456Z,5.80
2022-10-04T05:48:10.728Z,9.10
2022-10-04T05:50:45.412Z,8.50
2022-10-04T05:53:28.566Z,3.70
2022-10-04T05:56:13.878Z,3.30
2022-10-04T05:59:01.408Z,5.00
2022-10-04T06:01:44.491Z,7.40
2022-10-04T06:07:09.135Z,4.80
2022-10-04T06:10:05.064Z,4.90
2022-10-04T06:12:48.533Z,4.90
2022-10-04T06:15:44.074Z,3.70
2022-10-04T06:18:40.121Z,4.70
2022-10-04T06:21:21.628Z,3.20
2022-10-04T06:24:00.403Z,4.40
2022-10-04T06:26:36.452Z,5.70
2022-10-04T06:29:12.184Z,4.30
2022-10-04T06:32:15.951Z,5.50
2022-10-04T06:35:16.790Z,6.60
2022-10-04T06:38:20.909Z,5.60
2022-10-04T06:41:04.545Z,4.40
2022-10-04T06:44:03.120Z,4.70
2022-10-04T06:46:42.493Z,6.00
2022-10-04T06:49:36.145Z,6.40
2022-10-04T06:52:41.525Z,4.40
2022-10-04T06:55:38.132Z,5.00
2022-10-04T06:58:25.758Z,2.90
2022-10-04T07:01:03.590Z,3.60
2022-10-04T07:03:42.064Z,5.50
2022-10-04T07:06:14.067Z,3.60
2022-10-04T07:08:51.051Z,3.80
2022-10-04T07:11:28.622Z,5.20
2022-10-04T07:14:07.188Z,2.30
2022-10-04T07:16:45.899Z,2.00
2022-10-04T07:19:36.235Z,4.60
2022-10-04T07:22:18.780Z,7.70
2022-10-04T07:25:08.265Z,3.80
2022-10-04T07:28:11.295Z,5.70
2022-10-04T07:30:47.756Z,13.60
2022-10-04T07:35:55.107Z,5.80
2022-10-04T07:38:30.867Z,3.20
2022-10-04T07:41:09.344Z,5.80
2022-10-04T07:43:49.348Z,6.90
2022-10-04T07:46:29.137Z,4.60
2022-10-04T07:49:01.224Z,7.30
2022-10-04T07:51:41.507Z,4.80
2022-10-04T07:54:18.874Z,5.20
2022-10-04T07:56:55.308Z,2.40
2022-10-04T07:59:40.719Z,2.60
2022-10-04T08:02:26.608Z,3.20
2022-10-04T08:05:09.506Z,1.80
2022-10-04T08:07:58.140Z,3.50
2022-10-04T08:10:35.538Z,7.00
2022-10-04T08:13:17.634Z,3.10
2022-10-04T08:15:49.063Z,3.30
2022-10-04T08:18:27.818Z,2.70
2022-10-04T08:21:00.786Z,2.80
2022-10-04T08:23:47.340Z,3.40
2022-10-04T08:26:38.084Z,5.60
2022-10-04T08:29:43.960Z,6.40
2022-10-04T08:32:31.141Z,4.60
2022-10-04T08:35:23.751Z,2.50
2022-10-04T08:38:09.563Z,6.10
2022-10-04T08:41:26.472Z,3.80
2022-10-04T08:44:45.583Z,4.50
2022-10-04T08:47:43.511Z,3.00
2022-10-04T08:50:47.574Z,1.80
2022-10-04T08:53:54.411Z,3.50
2022-10-04T08:56:46.870Z,2.10
2022-10-04T08:59:45.526Z,1.90
2022-10-04T09:02:57.359Z,1.60
2022-10-04T09:05:55.238Z,3.50
2022-10-04T09:08:55.771Z,3.00
2022-10-04T09:11:45.348Z,2.90
2022-10-04T09:14:39.886Z,2.70
2022-10-04T09:17:22.993Z,4.20
2022-10-04T09:23:06.390Z,2.80
2022-10-04T09:25:56.484Z,2.20
2022-10-04T09:28:50.619Z,0.80
2022-10-04T09:31:53.759Z,2.50
2022-10-04T09:34:41.914Z,2.80
2022-10-04T09:37:26.225Z,3.50
2022-10-04T09:40:37.704Z,1.10
2022-10-04T09:43:43.973Z,1.60
2022-10-04T09:46:29.503Z,2.30
2022-10-04T09:49:13.600Z,1.50
2022-10-04T09:52:15.518Z,1.70
2022-10-04T09:55:08.945Z,3.90
2022-10-04T09:57:54.484Z,3.20
2022-10-04T10:00:27.656Z,1.90
2022-10-04T10:03:30.866Z,2.20
2022-10-04T10:06:25.748Z,1.80
2022-10-04T10:09:17.172Z,2.60
2022-10-04T10:12:16.888Z,1.80
2022-10-04T10:15:10.849Z,4.50
2022-10-04T10:17:51.332Z,3.00
2022-10-04T10:20:51.200Z,1.70
2022-10-04T10:23:31.435Z,3.20
2022-10-04T10:26:22.993Z,3.60
2022-10-04T10:29:17.727Z,2.40
2022-10-04T10:32:00.820Z,6.00
2022-10-04T10:34:47.374Z,3.30
2022-10-04T10:37:22.499Z,2.70
2022-10-04T10:40:17.737Z,2.50
2022-10-04T10:46:05.989Z,2.90
2022-10-04T10:48:56.892Z,3.00
2022-10-04T10:51:49.227Z,1.70
2022-10-04T10:54:42.567Z,2.90
2022-10-04T10:57:29.618Z,2.00
2022-10-04T11:00:20.684Z,3.10
2022-10-04T11:03:21.829Z,4.10
2022-10-04T11:06:15.220Z,2.90
2022-10-04T11:09:25.197Z,4.50
2022-10-04T11:12:34.087Z,3.80
2022-10-04T11:15:26.072Z,3.20
2022-10-04T11:18:21.389Z,2.10
2022-10-04T11:21:27.067Z,2.80
2022-10-04T11:24:32.461Z,4.80
2022-10-04T11:27:19.582Z,3.00
2022-10-04T11:30:04.328Z,2.20
2022-10-04T11:33:06.131Z,4.30
2022-10-04T11:36:08.250Z,2.30
2022-10-04T11:38:59.104Z,5.50
2022-10-04T11:41:44.467Z,3.30
2022-10-04T11:44:41.265Z,4.10
2022-10-04T11:47:27.823Z,2.40
2022-10-04T11:50:15.757Z,3.20
2022-10-04T11:53:26.026Z,6.80
2022-10-04T11:56:29.800Z,3.60
2022-10-04T11:59:19.696Z,4.50
2022-10-04T12:02:24.285Z,5.70
2022-10-04T12:05:16.758Z,3.00
2022-10-04T12:07:55.631Z,3.40
2022-10-04T12:10:31.257Z,3.00
2022-10-04T12:13:20.248Z,3.10
2022-10-04T12:16:27.746Z,3.20
2022-10-04T12:19:51.332Z,4.00
2022-10-04T12:22:53.015Z,2.10
2022-10-04T12:25:54.154Z,3.20
2022-10-04T12:28:42.107Z,3.90
2022-10-04T12:31:25.115Z,3.20
2022-10-04T12:34:06.075Z,2.20
2022-10-04T12:36:56.752Z,2.50
2022-10-04T12:39:41.067Z,2.50
2022-10-04T12:42:24.430Z,2.50
2022-10-04T12:45:22.030Z,2.00
2022-10-04T12:48:08.556Z,1.80
2022-10-04T12:50:55.815Z,2.30
2022-10-04T12:53:40.410Z,4.30
2022-10-04T12:56:34.053Z,1.60
2022-10-04T12:59:20.648Z,1.40
2022-10-04T13:01:58.766Z,2.70
2022-10-04T13:04:36.372Z,1.50
2022-10-04T13:07:28.675Z,2.40
2022-10-04T13:10:24.553Z,2.30
2022-10-04T13:13:24.209Z,1.80
2022-10-04T13:19:09.497Z,2.20
2022-10-04T13:22:08.101Z,2.70
2022-10-04T13:24:56.142Z,2.70
2022-10-04T13:27:34.985Z,1.40
2022-10-04T13:30:16.716Z,2.10
2022-10-04T13:32:55.528Z,1.70
2022-10-04T13:35:36.521Z,3.60
2022-10-04T13:38:33.383Z,2.50
2022-10-04T13:41:18.607Z,4.40
2022-10-04T13:44:09.881Z,2.60
2022-10-04T13:46:52.256Z,3.00
2022-10-04T13:49:36.737Z,1.70
2022-10-04T13:52:45.620Z,3.00
2022-10-04T13:55:45.673Z,1.00
2022-10-04T13:58:34.293Z,2.90
2022-10-04T14:01:39.183Z,1.80
2022-10-04T14:04:30.155Z,1.70
2022-10-04T14:07:32.318Z,0.90
2022-10-04T14:10:24.900Z,3.90
2022-10-04T14:13:33.319Z,3.80
2022-10-04T14:16:43.246Z,1.70
2022-10-04T14:19:43.196Z,2.60
2022-10-04T14:22:34.256Z,2.60
2022-10-04T14:25:31.214Z,2.10
2022-10-04T14:28:38.670Z,5.40
2022-10-04T14:31:30.253Z,2.00
2022-10-04T14:34:34.212Z,1.60
2022-10-04T14:37:25.883Z,3.60
2022-10-04T14:40:10.292Z,4.00
2022-10-04T14:42:55.890Z,2.40
2022-10-04T14:45:39.735Z,4.70
2022-10-04T14:48:38.501Z,6.80
2022-10-04T14:51:32.351Z,5.00
2022-10-04T14:54:09.859Z,11.70
2022-10-04T14:57:01.925Z,6.30
2022-10-04T14:59:57.445Z,6.10
2022-10-04T15:05:37.560Z,4.90
2022-10-04T15:08:47.198Z,3.60
2022-10-04T15:11:32.914Z,3.10
2022-10-04T15:14:22.232Z,3.30
2022-10-04T15:16:58.284Z,3.90
2022-10-04T15:19:37.639Z,8.60
2022-10-04T15:22:21.193Z,3.40
2022-10-04T15:24:53.418Z,5.50
2022-10-04T15:27:47.742Z,3.00
2022-10-04T15:30:27.557Z,4.10
2022-10-04T15:33:20.827Z,10.30
2022-10-04T15:36:23.813Z,8.10
2022-10-04T15:39:03.251Z,6.20
2022-10-04T15:41:47.005Z,5.60
2022-10-04T15:44:43.428Z,3.90
2022-10-04T15:47:23.208Z,3.10
2022-10-04T15:50:11.051Z,5.00
2022-10-04T15:53:20.457Z,7.50
2022-10-04T15:56:12.961Z,9.80
2022-10-04T15:59:26.395Z,7.20
2022-10-04T16:02:36.131Z,3.40
2022-10-04T16:05:19.156Z,15.00
2022-10-04T16:08:07.100Z,4.70
2022-10-04T16:11:09.563Z,3.40
2022-10-04T16:13:55.745Z,5.80
2022-10-04T16:16:59.987Z,6.40
2022-10-04T16:20:20.098Z,4.80
2022-10-04T16:23:22.098Z,12.60
2022-10-04T16:28:39.556Z,13.10
2022-10-04T16:31:40.316Z,3.90
2022-10-04T16:34:41.752Z,7.40
2022-10-04T16:37:31.803Z,10.00
2022-10-04T16:40:20.317Z,9.50
2022-10-04T16:42:59.538Z,9.10
2022-10-04T16:45:45.799Z,12.50
2022-10-04T16:48:33.630Z,24.00
2022-10-04T16:51:36.532Z,9.10
2022-10-04T16:54:31.256Z,5.40
2022-10-04T16:57:23.071Z,5.90
2022-10-04T16:59:58.052Z,9.60
2022-10-04T17:02:54.229Z,6.30
2022-10-04T17:05:47.316Z,7.00
2022-10-04T17:08:47.103Z,6.10
2022-10-04T17:11:41.343Z,5.70
2022-10-04T17:14:46.425Z,7.20
2022-10-04T17:17:29.996Z,5.00
2022-10-04T17:20:08.316Z,5.50
2022-10-04T17:22:50.271Z,9.10
2022-10-04T17:25:28.764Z,3.50
2022-10-04T17:28:13.292Z,6.40
2022-10-04T17:30:55.444Z,5.80
2022-10-04T17:33:37.946Z,7.30
2022-10-04T17:36:31.936Z,5.40
2022-10-04T17:39:16.596Z,5.30
2022-10-04T17:42:02.419Z,5.30
2022-10-04T17:44:42.234Z,4.40
2022-10-04T17:47:23.585Z,4.30
2022-10-04T17:50:22.000Z,6.50
2022-10-04T17:53:23.587Z,7.80
2022-10-04T17:55:56.364Z,20.40
2022-10-04T17:58:39.896Z,33.40
2022-10-04T18:03:46.795Z,11.70
2022-10-04T18:06:33.685Z,11.70
2022-10-04T18:09:14.246Z,21.10
2022-10-04T18:14:56.681Z,9.50
2022-10-04T18:17:35.949Z,6.70
2022-10-04T18:20:28.176Z,10.90
2022-10-04T18:23:15.886Z,15.30
2022-10-04T18:25:47.480Z,8.20
2022-10-04T18:28:23.324Z,11.10
2022-10-04T18:31:00.542Z,11.50
2022-10-04T18:33:50.364Z,10.00
2022-10-04T18:36:24.743Z,11.10
2022-10-04T18:39:21.222Z,11.80
2022-10-04T18:42:08.873Z,10.70
2022-10-04T18:44:48.486Z,14.90
2022-10-04T18:47:35.404Z,8.40
2022-10-04T18:50:25.041Z,7.80
2022-10-04T18:55:42.692Z,9.70
2022-10-04T18:58:44.936Z,14.20
2022-10-04T19:01:52.610Z,14.50
2022-10-04T19:04:33.802Z,26.90
2022-10-04T19:07:11.571Z,22.80
2022-10-04T19:10:17.859Z,24.50
2022-10-04T19:12:59.559Z,30.20
2022-10-04T19:15:42.882Z,28.30
2022-10-04T19:18:42.095Z,18.50
2022-10-04T19:21:20.995Z,15.90
2022-10-04T19:24:20.519Z,20.20
2022-10-04T19:26:56.551Z,29.40
2022-10-04T19:29:36.551Z,45.40
2022-10-04T19:32:11.186Z,16.60
2022-10-04T19:34:53.831Z,15.00
2022-10-04T19:37:28.816Z,19.90
2022-10-04T19:40:10.021Z,17.80
2022-10-04T19:42:50.327Z,14.50
2022-10-04T19:45:34.026Z,12.40
2022-10-04T19:48:13.712Z,9.80
2022-10-04T19:50:49.088Z,11.50
2022-10-04T19:53:23.339Z,11.20
2022-10-04T19:55:58.218Z,10.60
2022-10-04T19:58:41.277Z,9.00
2022-10-04T20:01:16.687Z,8.80
2022-10-04T20:04:07.828Z,7.40
2022-10-04T20:06:40.841Z,9.50
2022-10-04T20:09:27.078Z,9.20
2022-10-04T20:11:58.609Z,9.60
2022-10-04T20:14:48.602Z,9.00
2022-10-04T20:17:34.157Z,9.00
2022-10-04T20:20:05.225Z,8.80
2022-10-04T20:26:02.984Z,9.20
2022-10-04T20:28:44.772Z,8.30
2022-10-04T20:31:54.839Z,10.20
2022-10-04T20:34:48.381Z,8.50
2022-10-04T20:37:21.574Z,10.00
2022-10-04T20:40:01.488Z,11.30
2022-10-04T20:42:41.651Z,8.40
2022-10-04T20:45:28.650Z,11.20
2022-10-04T20:47:59.612Z,9.40
2022-10-04T20:50:43.326Z,11.20
2022-10-04T20:53:21.825Z,9.20
2022-10-04T20:56:12.565Z,10.10
2022-10-04T20:58:44.131Z,9.90
2022-10-04T21:01:46.438Z,10.40
2022-10-04T21:04:29.783Z,10.40
2022-10-04T21:09:32.431Z,12.60
2022-10-04T21:12:04.635Z,13.20
2022-10-04T21:14:37.416Z,11.00
2022-10-04T21:17:37.378Z,11.40
2022-10-04T21:20:15.870Z,10.40
2022-10-04T21:22:50.974Z,12.20
2022-10-04T21:25:36.543Z,12.20
2022-10-04T21:28:25.288Z,12.00
2022-10-04T21:30:56.389Z,11.90
2022-10-04T21:33:27.683Z,14.30
2022-10-04T21:35:58.730Z,13.20
2022-10-04T21:43:29.639Z,11.00
2022-10-04T21:46:01.169Z,10.50
2022-10-04T21:48:32.527Z,11.40
2022-10-04T21:51:03.720Z,13.30
2022-10-04T21:53:34.648Z,10.60
2022-10-04T21:56:07.715Z,11.20
2022-10-04T21:58:38.617Z,9.20
2022-10-04T22:03:39.431Z,12.10
2022-10-04T22:08:39.756Z,9.30
2022-10-04T22:11:11.007Z,10.30
2022-10-04T22:14:35.006Z,10.50
2022-10-04T22:17:06.185Z,8.60
2022-10-04T22:19:36.989Z,11.30
2022-10-04T22:22:13.082Z,10.50
2022-10-04T22:24:44.603Z,9.20
2022-10-04T22:27:17.876Z,10.50
2022-10-04T22:29:49.044Z,9.20
2022-10-04T22:34:53.211Z,12.50
2022-10-04T22:37:25.783Z,12.10
2022-10-04T22:39:58.737Z,9.10
2022-10-04T22:42:32.480Z,14.50
2022-10-04T22:45:04.580Z,8.70
2022-10-04T22:47:35.889Z,12.20
2022-10-04T22:52:49.791Z,10.50
2022-10-04T22:55:21.616Z,8.40
2022-10-04T22:57:52.719Z,7.90
2022-10-04T23:00:23.684Z,8.60
2022-10-04T23:02:56.017Z,7.10
2022-10-04T23:05:28.229Z,10.10
2022-10-04T23:07:59.278Z,9.90
2022-10-04T23:10:30.265Z,7.30
2022-10-04T23:13:01.171Z,8.90
2022-10-04T23:15:32.018Z,13.50
2022-10-04T23:18:03.078Z,7.30
2022-10-04T23:23:03.697Z,11.90
2022-10-04T23:28:13.880Z,6.80
2022-10-04T23:30:45.981Z,10.90
2022-10-04T23:33:21.093Z,10.30
2022-10-04T23:35:55.158Z,10.80
2022-10-04T23:38:27.419Z,7.30
2022-10-04T23:40:58.489Z,7.00
2022-10-04T23:43:31.891Z,8.30
2022-10-04T23:46:02.898Z,6.10
2022-10-04T23:48:33.989Z,8.60
2022-10-04T23:51:05.099Z,7.20
2022-10-04T23:53:36.493Z,10.40
2022-10-04T23:56:13.469Z,7.60
2022-10-04T23:58:44.998Z,6.50
